Time;durP1;ratioP1;P1;durP2;ratioP2;P2;SDS_P1;SDS_P2;PMS_P1;PMS_P2;Temp;Humidity;BMP_temperature;BMP_pressure;BME280_temperature;BME280_humidity;BME280_pressure;Samples;Min_cycle;Max_cycle;Signal;HPM_P1;HPM_P2
2021/04/16 00:00:47;;;;;;;8.33;5.93;;;6.20;1.00;;;;;;5092838;28;20674;-83
2021/04/16 00:03:13;;;;;;;8.50;5.77;;;6.20;1.00;;;;;;5092699;28;20168;-81
2021/04/16 00:05:39;;;;;;;7.80;5.77;;;6.20;1.00;;;;;;5092876;28;20251;-81
2021/04/16 00:08:08;;;;;;;10.33;6.00;;;6.20;1.00;;;;;;5076142;28;20540;-81
2021/04/16 00:10:41;;;;;;;9.47;6.93;;;6.20;1.00;;;;;;5078372;28;20215;-82
2021/04/16 00:13:08;;;;;;;8.23;6.10;;;6.10;1.00;;;;;;5077930;28;20179;-83
2021/04/16 00:15:36;;;;;;;9.93;6.07;;;6.10;1.00;;;;;;5078181;28;20534;-82
2021/04/16 00:18:05;;;;;;;9.57;6.43;;;6.10;1.00;;;;;;5077969;28;20176;-82
2021/04/16 00:20:30;;;;;;;8.87;6.33;;;6.00;1.00;;;;;;5096255;28;20246;-82
2021/04/16 00:22:56;;;;;;;10.57;6.83;;;6.00;1.00;;;;;;5078204;28;20324;-82
2021/04/16 00:25:24;;;;;;;10.53;5.80;;;6.00;1.00;;;;;;5096185;28;20667;-83
2021/04/16 00:27:49;;;;;;;9.10;6.67;;;6.00;1.00;;;;;;5095736;28;20167;-82
2021/04/16 00:30:18;;;;;;;10.20;5.90;;;6.00;1.00;;;;;;5077986;28;20207;-82
2021/04/16 00:32:43;;;;;;;10.10;6.40;;;6.00;1.00;;;;;;5096031;28;20168;-79
2021/04/16 00:35:09;;;;;;;9.47;7.17;;;5.90;1.00;;;;;;5096129;28;20635;-83
2021/04/16 00:37:35;;;;;;;10.20;6.73;;;5.90;1.00;;;;;;5077775;28;20217;-82
2021/04/16 00:40:03;;;;;;;9.97;6.13;;;5.90;1.00;;;;;;5096138;28;20167;-81
2021/04/16 00:42:28;;;;;;;9.83;5.67;;;5.90;1.00;;;;;;5096253;28;20168;-83
2021/04/16 00:44:54;;;;;;;10.43;6.93;;;5.90;1.00;;;;;;5077887;28;20237;-83
2021/04/16 00:47:22;;;;;;;12.07;7.57;;;5.80;1.00;;;;;;5095859;28;20187;-81
2021/04/16 00:49:55;;;;;;;11.60;7.40;;;5.80;1.00;;;;;;5095918;28;20202;-83
2021/04/16 00:52:29;;;;;;;10.23;6.77;;;5.80;1.00;;;;;;5095998;28;20187;-83
2021/04/16 00:54:56;;;;;;;10.17;6.90;;;5.80;1.00;;;;;;5095902;28;20198;-84
2021/04/16 00:57:23;;;;;;;9.13;5.97;;;5.80;1.00;;;;;;5077371;28;20174;-80
2021/04/16 00:59:57;;;;;;;9.53;6.93;;;5.70;1.00;;;;;;5077633;28;20696;-81
2021/04/16 01:02:23;;;;;;;9.43;6.63;;;5.60;1.00;;;;;;5095709;28;20632;-80
2021/04/16 01:04:49;;;;;;;13.00;7.00;;;5.60;1.00;;;;;;5077273;28;20643;-80
2021/04/16 01:07:18;;;;;;;10.10;6.67;;;5.60;1.00;;;;;;5077539;28;20217;-83
2021/04/16 01:09:44;;;;;;;9.57;6.70;;;5.60;1.00;;;;;;5077243;28;20203;-82
2021/04/16 01:12:11;;;;;;;12.57;6.90;;;5.50;1.00;;;;;;5095153;28;20164;-82
2021/04/16 01:14:39;;;;;;;9.00;6.37;;;5.60;1.00;;;;;;5095317;28;20182;-83
2021/04/16 01:17:07;;;;;;;9.00;6.13;;;5.50;1.00;;;;;;5095257;28;20632;-82
2021/04/16 01:20:10;;;;;;;8.30;6.80;;;5.50;1.00;;;;;;5094813;28;20179;-79
2021/04/16 01:22:54;;;;;;;9.73;6.30;;;5.40;1.00;;;;;;5077294;28;20309;-82
2021/04/16 01:25:20;;;;;;;10.00;6.97;;;5.30;1.00;;;;;;5076818;28;20182;-79
2021/04/16 01:27:46;;;;;;;9.33;6.77;;;5.30;1.00;;;;;;5076875;28;20172;-80
2021/04/16 01:30:16;;;;;;;10.33;6.60;;;5.30;1.00;;;;;;5076830;28;20290;-80
2021/04/16 01:32:42;;;;;;;9.20;6.47;;;5.30;1.00;;;;;;5095027;28;20305;-79
2021/04/16 01:35:16;;;;;;;7.03;5.73;;;5.30;1.00;;;;;;5076866;28;20258;-80
2021/04/16 01:37:42;;;;;;;8.17;6.30;;;5.40;1.00;;;;;;5094888;28;20214;-80
2021/04/16 01:40:10;;;;;;;9.47;5.80;;;5.30;1.00;;;;;;5076463;28;20566;-81
2021/04/16 01:42:36;;;;;;;10.17;6.20;;;5.30;1.00;;;;;;5076446;28;20266;-80
2021/04/16 01:45:04;;;;;;;9.57;6.47;;;5.20;1.60;;;;;;5094689;28;20658;-81
2021/04/16 01:47:30;;;;;;;9.23;6.43;;;5.20;1.00;;;;;;5094498;28;20164;-79
2021/04/16 01:49:55;;;;;;;8.90;6.00;;;5.20;1.60;;;;;;5094606;28;20677;-82
2021/04/16 01:52:31;;;;;;;9.47;6.73;;;5.20;1.00;;;;;;5094649;28;20198;-83
2021/04/16 01:54:57;;;;;;;7.40;6.07;;;5.20;4.60;;;;;;5094315;28;20175;-81
2021/04/16 01:57:32;;;;;;;8.83;6.77;;;5.10;1.60;;;;;;5094329;28;20175;-82
2021/04/16 02:00:00;;;;;;;9.30;6.30;;;5.10;4.60;;;;;;5094459;28;20167;-78
2021/04/16 02:02:33;;;;;;;9.83;6.53;;;5.10;4.20;;;;;;5076358;28;20168;-81
2021/04/16 02:04:59;;;;;;;8.70;6.60;;;5.00;4.60;;;;;;5076132;28;20535;-82
2021/04/16 02:07:26;;;;;;;10.07;6.40;;;5.00;6.90;;;;;;5076037;28;20259;-81
2021/04/16 02:09:52;;;;;;;10.23;6.70;;;5.00;6.20;;;;;;5075901;28;20196;-80
2021/04/16 02:12:21;;;;;;;11.67;6.70;;;5.00;8.60;;;;;;5075830;28;20226;-82
2021/04/16 02:14:47;;;;;;;10.87;7.27;;;5.00;8.20;;;;;;5076137;28;20176;-82
2021/04/16 02:17:17;;;;;;;10.23;6.67;;;4.90;6.10;;;;;;5094058;28;20655;-82
2021/04/16 02:19:43;;;;;;;11.30;6.53;;;4.90;8.30;;;;;;5075977;28;20241;-81
2021/04/16 02:22:13;;;;;;;10.03;6.37;;;4.90;9.30;;;;;;5075759;28;20581;-82
2021/04/16 02:24:39;;;;;;;8.67;6.10;;;4.90;11.00;;;;;;5075581;28;20229;-81
2021/04/16 02:27:05;;;;;;;9.07;6.43;;;4.80;7.60;;;;;;5093928;28;20163;-80
2021/04/16 02:29:31;;;;;;;9.13;6.30;;;4.80;10.40;;;;;;5093487;28;20207;-81
2021/04/16 02:31:57;;;;;;;10.67;6.83;;;4.80;11.40;;;;;;5075497;28;20175;-82
2021/04/16 02:34:26;;;;;;;9.37;6.47;;;4.70;14.90;;;;;;5093902;28;20172;-79
2021/04/16 02:36:55;;;;;;;8.57;5.70;;;4.80;10.90;;;;;;5093766;28;20172;-81
2021/04/16 02:39:21;;;;;;;14.00;6.67;;;4.70;10.40;;;;;;5075493;28;20167;-82
2021/04/16 02:41:47;;;;;;;12.23;6.90;;;4.70;8.80;;;;;;5093682;28;20254;-79
2021/04/16 02:44:13;;;;;;;11.70;7.10;;;4.70;10.30;;;;;;5077327;28;20180;-83
2021/04/16 02:46:39;;;;;;;11.10;6.20;;;4.70;9.70;;;;;;5093453;28;20742;-79
2021/04/16 02:49:05;;;;;;;9.10;6.57;;;4.70;10.40;;;;;;5093547;28;20250;-82
2021/04/16 02:51:31;;;;;;;9.60;6.30;;;4.70;10.50;;;;;;5075210;28;20286;-82
2021/04/16 02:53:57;;;;;;;7.53;5.63;;;4.70;4.00;;;;;;5093246;28;20247;-80
2021/04/16 02:56:23;;;;;;;11.63;6.10;;;4.70;5.40;;;;;;5093576;28;20175;-80
2021/04/16 02:58:49;;;;;;;8.30;5.90;;;4.60;11.40;;;;;;5075262;28;20224;-80
2021/04/16 03:01:15;;;;;;;7.90;6.00;;;4.60;12.00;;;;;;5093528;28;20170;-82
2021/04/16 03:03:40;;;;;;;10.03;5.80;;;4.60;7.80;;;;;;5075134;28;20167;-81
2021/04/16 03:06:07;;;;;;;7.47;5.70;;;4.60;8.40;;;;;;5075277;28;20657;-81
2021/04/16 03:08:33;;;;;;;7.87;6.40;;;4.60;7.30;;;;;;5092849;28;20163;-81
2021/04/16 03:10:59;;;;;;;13.70;6.40;;;4.60;9.20;;;;;;5075257;28;20236;-83
2021/04/16 03:13:25;;;;;;;9.93;6.27;;;4.50;9.40;;;;;;5092988;28;20172;-80
2021/04/16 03:15:51;;;;;;;10.83;6.47;;;4.50;10.60;;;;;;5093303;28;20175;-83
2021/04/16 03:18:18;;;;;;;7.83;5.73;;;4.50;9.50;;;;;;5092772;28;20170;-81
2021/04/16 03:20:44;;;;;;;10.40;5.97;;;4.50;9.90;;;;;;5092945;28;20167;-80
2021/04/16 03:23:11;;;;;;;9.03;5.77;;;4.40;8.10;;;;;;5092646;28;20243;-81
2021/04/16 03:25:37;;;;;;;10.17;5.97;;;4.40;5.70;;;;;;5074808;28;20182;-82
2021/04/16 03:28:03;;;;;;;8.40;6.23;;;4.50;7.30;;;;;;5092581;28;20160;-80
2021/04/16 03:30:30;;;;;;;9.73;5.73;;;4.40;9.30;;;;;;5092805;28;20281;-80
2021/04/16 03:32:55;;;;;;;9.47;6.10;;;4.40;10.40;;;;;;5074603;28;20197;-80
2021/04/16 03:35:22;;;;;;;7.30;5.57;;;4.30;10.60;;;;;;5074913;28;20176;-81
2021/04/16 03:37:48;;;;;;;8.20;6.47;;;4.30;9.00;;;;;;5092587;28;20172;-82
2021/04/16 03:40:19;;;;;;;8.07;6.23;;;4.30;9.30;;;;;;5074840;28;20176;-79
2021/04/16 03:42:45;;;;;;;11.93;5.80;;;4.30;15.30;;;;;;5077609;28;20175;-82
2021/04/16 03:45:13;;;;;;;8.50;5.60;;;4.40;11.20;;;;;;5097086;28;20515;-82
2021/04/16 03:47:40;;;;;;;9.17;5.53;;;4.40;6.30;;;;;;5096740;28;20168;-80
2021/04/16 03:50:06;;;;;;;14.17;6.40;;;4.30;7.90;;;;;;5078786;28;20195;-80
2021/04/16 03:52:32;;;;;;;9.07;6.37;;;4.30;10.20;;;;;;5096433;28;20188;-82
2021/04/16 03:54:58;;;;;;;10.43;6.63;;;4.20;11.70;;;;;;5097140;28;20178;-82
2021/04/16 03:57:23;;;;;;;12.30;6.33;;;4.30;12.00;;;;;;5096916;28;20163;-81
2021/04/16 03:59:49;;;;;;;8.03;5.97;;;4.30;10.90;;;;;;5097010;28;20174;-82
2021/04/16 04:02:15;;;;;;;9.40;6.33;;;4.30;9.10;;;;;;5096788;28;20583;-80
2021/04/16 04:04:41;;;;;;;7.77;5.47;;;4.20;12.60;;;;;;5096788;28;20624;-80
2021/04/16 04:07:07;;;;;;;12.40;6.17;;;4.20;11.50;;;;;;5078495;28;20535;-82
2021/04/16 04:09:34;;;;;;;8.90;6.00;;;4.20;13.40;;;;;;5078169;28;20191;-83
2021/04/16 04:12:00;;;;;;;9.57;6.10;;;4.20;14.30;;;;;;5096897;28;20174;-81
2021/04/16 04:14:25;;;;;;;9.20;6.53;;;4.20;16.30;;;;;;5078020;28;20270;-81
2021/04/16 04:17:02;;;;;;;8.10;5.53;;;4.10;17.30;;;;;;5078242;28;20182;-82
2021/04/16 04:19:30;;;;;;;9.43;6.30;;;4.10;17.90;;;;;;5077957;28;20172;-81
2021/04/16 04:21:58;;;;;;;9.63;6.63;;;4.00;17.50;;;;;;5078092;28;20194;-81
2021/04/16 04:24:24;;;;;;;6.47;5.77;;;4.20;17.30;;;;;;5096252;28;20205;-81
2021/04/16 04:26:50;;;;;;;9.17;6.50;;;4.10;15.60;;;;;;5078081;28;20172;-82
2021/04/16 04:29:19;;;;;;;7.43;6.30;;;4.10;14.20;;;;;;5077747;28;20194;-81
2021/04/16 04:31:48;;;;;;;8.77;5.90;;;4.00;20.70;;;;;;5095819;28;20528;-80
2021/04/16 04:34:14;;;;;;;9.90;6.77;;;4.00;18.00;;;;;;5095742;28;20171;-82
2021/04/16 04:36:40;;;;;;;12.23;7.03;;;4.10;16.90;;;;;;5077784;28;20653;-80
2021/04/16 04:39:05;;;;;;;12.63;7.17;;;4.10;17.00;;;;;;5095873;28;20254;-81
2021/04/16 04:41:31;;;;;;;11.93;7.13;;;4.10;17.60;;;;;;5077913;28;20171;-82
2021/04/16 04:43:57;;;;;;;10.50;6.83;;;4.10;17.20;;;;;;5077736;28;20198;-83
2021/04/16 04:46:22;;;;;;;10.43;6.50;;;4.10;17.80;;;;;;5077533;28;20624;-80
2021/04/16 04:48:48;;;;;;;10.47;7.20;;;4.00;15.20;;;;;;5095596;28;20312;-82
2021/04/16 04:51:14;;;;;;;12.70;7.90;;;4.00;16.60;;;;;;5095634;28;20215;-82
2021/04/16 04:53:39;;;;;;;10.83;6.77;;;4.00;17.50;;;;;;5095031;28;20164;-82
2021/04/16 04:56:05;;;;;;;11.40;7.10;;;4.00;18.60;;;;;;5095791;28;20196;-80
2021/04/16 04:58:31;;;;;;;8.73;6.63;;;4.00;17.20;;;;;;5095484;28;20175;-80
2021/04/16 05:00:56;;;;;;;9.83;6.70;;;3.90;15.20;;;;;;5095322;28;20164;-81
2021/04/16 05:03:22;;;;;;;8.83;6.67;;;3.90;17.50;;;;;;5095138;28;20175;-80
2021/04/16 05:05:48;;;;;;;11.50;6.43;;;3.90;18.60;;;;;;5095348;28;20163;-81
2021/04/16 05:08:13;;;;;;;10.47;5.90;;;4.00;16.80;;;;;;5077285;28;20179;-82
2021/04/16 05:10:39;;;;;;;9.60;6.70;;;3.90;16.80;;;;;;5095129;28;20203;-80
2021/04/16 05:13:04;;;;;;;8.10;6.33;;;3.90;16.90;;;;;;5095252;28;20171;-82
2021/04/16 05:15:30;;;;;;;11.37;6.73;;;3.90;16.50;;;;;;5076716;28;20585;-81
2021/04/16 05:17:56;;;;;;;13.33;6.53;;;3.80;16.80;;;;;;5094805;28;20172;-81
2021/04/16 05:20:22;;;;;;;10.87;6.43;;;3.80;14.70;;;;;;5095022;28;20172;-80
2021/04/16 05:22:48;;;;;;;12.20;5.83;;;3.80;16.80;;;;;;5095015;28;20171;-80
2021/04/16 05:25:13;;;;;;;9.50;5.83;;;3.70;19.40;;;;;;5094849;28;20172;-80
2021/04/16 05:27:39;;;;;;;9.03;6.70;;;3.80;19.10;;;;;;5076634;28;20178;-82
2021/04/16 05:30:07;;;;;;;10.13;5.60;;;3.90;18.00;;;;;;5076251;28;20780;-81
2021/04/16 05:32:32;;;;;;;8.17;6.00;;;3.90;17.10;;;;;;5094912;28;20168;-79
2021/04/16 05:34:58;;;;;;;10.40;6.37;;;3.90;15.40;;;;;;5094824;28;20567;-80
2021/04/16 05:37:24;;;;;;;10.03;5.80;;;3.90;14.50;;;;;;5076891;28;20174;-82
2021/04/16 05:39:51;;;;;;;9.00;5.47;;;3.90;15.00;;;;;;5076345;28;20171;-81
2021/04/16 05:42:18;;;;;;;10.37;5.77;;;3.90;10.30;;;;;;5094405;28;20171;-80
2021/04/16 05:44:44;;;;;;;7.10;4.80;;;4.00;10.40;;;;;;5075628;28;20305;-81
2021/04/16 05:47:09;;;;;;;8.00;5.20;;;3.90;10.20;;;;;;5075794;28;20258;-79
2021/04/16 05:49:35;;;;;;;9.03;4.90;;;3.80;6.70;;;;;;5076447;28;20211;-81
2021/04/16 05:52:00;;;;;;;7.23;4.83;;;3.80;7.50;;;;;;5094298;28;20195;-79
2021/04/16 05:54:26;;;;;;;9.13;5.40;;;3.80;6.90;;;;;;5076029;28;20171;-82
2021/04/16 05:56:52;;;;;;;10.37;5.07;;;3.80;7.40;;;;;;5076185;28;20254;-81
2021/04/16 05:59:18;;;;;;;10.47;5.00;;;3.80;10.40;;;;;;5094582;28;20163;-81
2021/04/16 06:01:43;;;;;;;8.40;5.47;;;3.90;5.10;;;;;;5094084;28;20190;-80
2021/04/16 06:04:17;;;;;;;8.40;5.80;;;3.90;3.10;;;;;;5076124;28;20175;-80
2021/04/16 06:06:43;;;;;;;8.07;5.47;;;3.90;1.00;;;;;;5075215;28;20172;-81
2021/04/16 06:09:09;;;;;;;9.23;6.10;;;3.90;1.00;;;;;;5076096;28;20217;-81
2021/04/16 06:11:34;;;;;;;10.07;5.77;;;3.90;4.70;;;;;;5093892;28;20178;-81
2021/04/16 06:14:00;;;;;;;8.20;5.87;;;3.90;4.10;;;;;;5076235;28;20172;-79
2021/04/16 06:16:25;;;;;;;7.00;5.23;;;4.00;1.00;;;;;;5093724;28;20266;-81
2021/04/16 06:18:51;;;;;;;8.70;5.67;;;4.00;1.00;;;;;;5093720;28;20171;-80
2021/04/16 06:21:17;;;;;;;8.07;5.10;;;4.00;1.00;;;;;;5093821;28;20174;-80
2021/04/16 06:23:43;;;;;;;7.80;5.17;;;4.10;1.00;;;;;;5093738;28;20202;-80
2021/04/16 06:26:17;;;;;;;9.23;5.53;;;4.10;1.00;;;;;;5090391;27;20575;-80
2021/04/16 06:28:44;;;;;;;9.17;4.87;;;4.20;1.00;;;;;;5090172;28;20620;-79
2021/04/16 06:31:12;;;;;;;9.47;5.37;;;4.20;1.00;;;;;;5088598;28;20617;-79
2021/04/16 06:33:38;;;;;;;9.67;5.30;;;4.20;1.00;;;;;;5089167;28;20271;-80
2021/04/16 06:36:07;;;;;;;7.13;5.00;;;4.40;1.00;;;;;;5089072;28;20271;-80
2021/04/16 06:38:37;;;;;;;8.63;5.00;;;4.40;1.00;;;;;;5090236;28;20176;-80
2021/04/16 06:41:12;;;;;;;9.50;4.90;;;4.40;1.00;;;;;;5088646;28;20178;-82
2021/04/16 06:43:42;;;;;;;7.17;5.37;;;4.50;1.00;;;;;;5090044;28;20639;-82
2021/04/16 06:46:14;;;;;;;10.53;4.97;;;4.50;1.00;;;;;;5088034;28;20284;-81
2021/04/16 06:48:40;;;;;;;11.70;5.60;;;4.60;1.00;;;;;;5088707;28;20607;-81
2021/04/16 06:51:06;;;;;;;7.37;3.80;;;4.70;1.00;;;;;;5088469;28;20230;-81
2021/04/16 06:53:58;;;;;;;9.33;5.00;;;4.70;1.00;;;;;;5089660;28;20251;-80
2021/04/16 06:56:33;;;;;;;9.97;5.10;;;4.70;1.00;;;;;;5085674;28;20558;-81
2021/04/16 06:59:22;;;;;;;7.97;5.07;;;4.80;1.00;;;;;;5088301;28;20176;-79
2021/04/16 07:01:57;;;;;;;7.57;4.73;;;5.00;1.00;;;;;;5087910;28;20179;-81
2021/04/16 07:04:53;;;;;;;8.00;4.80;;;5.00;1.00;;;;;;5089336;28;20191;-81
2021/04/16 07:07:41;;;;;;;9.43;4.90;;;5.10;1.00;;;;;;5089397;28;20179;-83
2021/04/16 07:10:20;;;;;;;10.23;5.17;;;5.10;1.00;;;;;;5089508;28;20171;-80
2021/04/16 07:12:53;;;;;;;10.53;5.07;;;5.10;1.00;;;;;;5088147;28;20271;-82
2021/04/16 07:16:03;;;;;;;9.27;5.07;;;5.20;1.00;;;;;;5087734;28;20171;-81
2021/04/16 07:18:39;;;;;;;6.87;4.80;;;5.30;1.00;;;;;;5078638;28;20191;-81
2021/04/16 07:21:08;;;;;;;6.13;4.57;;;5.50;1.00;;;;;;5089325;28;20175;-80
2021/04/16 07:24:03;;;;;;;7.43;4.20;;;5.50;1.00;;;;;;5089146;28;20192;-83
2021/04/16 07:26:41;;;;;;;10.83;4.83;;;5.50;1.00;;;;;;5088875;28;20221;-81
2021/04/16 07:29:09;;;;;;;6.97;5.13;;;5.60;1.00;;;;;;5087142;28;20171;-81
2021/04/16 07:31:43;;;;;;;10.77;4.97;;;5.70;1.00;;;;;;5089231;28;20175;-79
2021/04/16 07:34:27;;;;;;;9.70;4.43;;;5.70;1.00;;;;;;5088749;28;20646;-81
2021/04/16 07:36:53;;;;;;;12.40;4.93;;;5.80;1.00;;;;;;5079738;28;20164;-83
2021/04/16 07:39:28;;;;;;;8.43;4.63;;;5.80;1.00;;;;;;5073936;28;20251;-82
2021/04/16 07:42:09;;;;;;;7.10;4.57;;;5.80;1.00;;;;;;5074110;28;20183;-82
2021/04/16 07:45:18;;;;;;;8.53;4.80;;;5.80;1.00;;;;;;5074880;28;20192;-80
2021/04/16 07:47:45;;;;;;;8.87;4.47;;;5.70;1.00;;;;;;5070544;28;20180;-81
2021/04/16 07:50:27;;;;;;;9.57;5.20;;;5.70;1.00;;;;;;5074034;28;20259;-81
2021/04/16 07:52:53;;;;;;;7.80;5.00;;;5.80;1.00;;;;;;5075103;28;20267;-82
2021/04/16 07:55:24;;;;;;;10.37;4.97;;;5.90;1.00;;;;;;5074158;28;20186;-81
2021/04/16 07:57:52;;;;;;;7.43;4.60;;;6.00;1.00;;;;;;5074633;28;20520;-80
2021/04/16 08:00:29;;;;;;;7.23;4.13;;;6.00;1.00;;;;;;5074045;28;20169;-81
2021/04/16 08:03:17;;;;;;;6.77;4.30;;;6.00;1.00;;;;;;5074950;28;20621;-80
2021/04/16 08:05:53;;;;;;;10.97;5.00;;;6.00;1.00;;;;;;5075184;28;20200;-82
2021/04/16 08:08:22;;;;;;;8.13;5.00;;;6.10;1.00;;;;;;5073247;28;20168;-81
2021/04/16 08:10:52;;;;;;;6.43;4.00;;;6.10;1.00;;;;;;5075174;28;20172;-81
2021/04/16 08:13:47;;;;;;;8.87;5.03;;;6.10;1.00;;;;;;5073199;28;20208;-81
2021/04/16 08:16:19;;;;;;;8.20;4.57;;;6.10;1.00;;;;;;5072631;28;20271;-83
2021/04/16 08:19:04;;;;;;;9.73;4.93;;;6.20;1.00;;;;;;5074443;28;20226;-81
2021/04/16 08:21:35;;;;;;;13.53;5.23;;;6.10;1.00;;;;;;5073341;28;20636;-81
2021/04/16 08:24:18;;;;;;;14.10;5.27;;;6.20;1.00;;;;;;5074228;28;20195;-80
2021/04/16 08:26:51;;;;;;;9.83;5.37;;;6.20;1.00;;;;;;5073208;28;20184;-82
2021/04/16 08:29:32;;;;;;;13.67;4.73;;;6.40;1.00;;;;;;5073298;28;20199;-81
2021/04/16 08:32:04;;;;;;;7.80;4.60;;;6.50;1.00;;;;;;5073105;28;20169;-81
2021/04/16 08:34:42;;;;;;;8.83;5.50;;;6.50;1.00;;;;;;5074323;28;20239;-82
2021/04/16 08:37:28;;;;;;;8.70;5.23;;;6.50;1.00;;;;;;5074310;28;20168;-83
2021/04/16 08:39:54;;;;;;;9.53;5.33;;;6.60;1.00;;;;;;5074433;28;20180;-81
2021/04/16 08:42:28;;;;;;;7.93;5.17;;;6.90;1.00;;;;;;5072656;28;20164;-84
2021/04/16 08:44:58;;;;;;;7.40;4.73;;;6.80;1.00;;;;;;5074039;28;20192;-83
2021/04/16 08:47:31;;;;;;;8.97;5.20;;;6.90;1.00;;;;;;5072192;28;20644;-82
2021/04/16 08:49:59;;;;;;;10.17;5.20;;;7.10;1.00;;;;;;5073533;28;20620;-80
2021/04/16 08:52:24;;;;;;;7.57;4.33;;;7.20;1.00;;;;;;5073767;28;20302;-82
2021/04/16 08:54:53;;;;;;;8.40;4.63;;;7.30;1.00;;;;;;5072276;28;20204;-81
2021/04/16 08:57:46;;;;;;;7.33;4.40;;;7.40;1.00;;;;;;5073826;28;20218;-83
2021/04/16 09:00:22;;;;;;;11.33;4.90;;;7.60;1.00;;;;;;5072992;28;20184;-82
2021/04/16 09:02:53;;;;;;;9.83;4.63;;;7.70;1.00;;;;;;5072631;28;20189;-82
2021/04/16 09:05:24;;;;;;;9.83;4.43;;;7.90;1.00;;;;;;5072381;28;20298;-83
2021/04/16 09:07:53;;;;;;;7.77;4.43;;;8.00;1.00;;;;;;5072648;28;20207;-85
2021/04/16 09:10:18;;;;;;;11.07;4.87;;;8.00;1.00;;;;;;5073243;28;20183;-82
2021/04/16 09:12:46;;;;;;;10.33;4.47;;;7.90;1.00;;;;;;5073356;28;20171;-82
2021/04/16 09:15:20;;;;;;;8.00;4.60;;;7.80;1.00;;;;;;5073418;28;20310;-83
2021/04/16 09:17:57;;;;;;;8.50;4.90;;;7.90;1.00;;;;;;5073538;28;20163;-83
2021/04/16 09:20:35;;;;;;;8.03;5.20;;;7.90;1.00;;;;;;5073321;28;20168;-81
2021/04/16 09:23:04;;;;;;;10.13;4.40;;;7.90;1.00;;;;;;5073724;28;20164;-82
2021/04/16 09:25:47;;;;;;;8.67;4.00;;;8.00;1.00;;;;;;5071437;28;20298;-83
2021/04/16 09:28:21;;;;;;;7.23;4.87;;;8.00;1.00;;;;;;5073386;28;20160;-82
2021/04/16 09:30:49;;;;;;;9.07;4.67;;;8.10;1.00;;;;;;5073004;28;20190;-82
2021/04/16 09:33:22;;;;;;;7.83;4.37;;;8.20;1.00;;;;;;5072086;28;20669;-83
2021/04/16 09:36:07;;;;;;;10.50;4.63;;;8.60;99.90;;;;;;5071588;28;20172;-80
2021/04/16 09:38:38;;;;;;;7.77;4.80;;;8.40;99.90;;;;;;5071626;28;20172;-82
2021/04/16 09:41:18;;;;;;;7.50;4.50;;;8.20;99.90;;;;;;5072823;28;20172;-83
2021/04/16 09:43:45;;;;;;;9.60;4.47;;;8.40;99.90;;;;;;5073306;28;20176;-83
2021/04/16 09:46:30;;;;;;;10.23;4.07;;;8.50;99.90;;;;;;5071353;28;20301;-83
2021/04/16 09:49:02;;;;;;;9.30;4.37;;;8.70;99.90;;;;;;5073062;28;20217;-83
2021/04/16 09:51:30;;;;;;;7.73;3.70;;;8.90;99.90;;;;;;5071113;28;20661;-82
2021/04/16 09:54:21;;;;;;;6.70;3.70;;;8.90;99.90;;;;;;5071057;28;20176;-81
2021/04/16 09:57:03;;;;;;;9.27;3.87;;;8.90;99.90;;;;;;5068816;28;20208;-83
2021/04/16 09:59:47;;;;;;;5.57;3.70;;;9.00;1.00;;;;;;5072668;28;20247;-82
2021/04/16 10:02:12;;;;;;;9.13;4.23;;;8.90;1.00;;;;;;5071554;28;20546;-84
2021/04/16 10:04:50;;;;;;;8.40;4.57;;;9.00;1.00;;;;;;5071797;28;20282;-82
2021/04/16 10:07:21;;;;;;;8.63;3.70;;;9.20;1.00;;;;;;5071484;28;20572;-83
2021/04/16 10:09:47;;;;;;;5.90;3.83;;;9.20;1.00;;;;;;5072976;28;20564;-84
2021/04/16 10:12:23;;;;;;;5.83;3.83;;;9.10;99.90;;;;;;5071471;28;20214;-85
2021/04/16 10:14:49;;;;;;;8.93;3.10;;;9.30;99.90;;;;;;5072752;28;20238;-83
2021/04/16 10:17:14;;;;;;;9.00;3.73;;;9.50;99.90;;;;;;5071195;28;20566;-82
2021/04/16 10:20:00;;;;;;;5.40;4.10;;;9.60;99.90;;;;;;5072475;28;20177;-84
2021/04/16 10:22:33;;;;;;;6.13;3.40;;;9.70;99.90;;;;;;5069419;28;20180;-82
2021/04/16 10:44:25;;;;;;;4.23;2.97;;;9.80;75.40;;;;;;5080438;28;20187;-83
2021/04/16 10:52:24;;;;;;;6.90;2.80;;;10.10;99.90;;;;;;5072165;28;20203;-83
2021/04/16 11:07:38;;;;;;;3.63;2.60;;;10.00;99.90;;;;;;5072301;28;20325;-80
2021/04/16 11:17:06;;;;;;;4.53;3.20;;;10.30;99.90;;;;;;5073174;28;20176;-81
2021/04/16 12:39:20;;;;;;;4.83;2.60;;;11.00;1.00;;;;;;5073766;28;20592;-80
2021/04/16 12:41:53;;;;;;;6.00;3.60;;;11.10;31.20;;;;;;5074076;28;20168;-81
2021/04/16 12:44:39;;;;;;;3.60;2.63;;;11.10;1.00;;;;;;5074078;28;20165;-82
2021/04/16 12:47:13;;;;;;;6.00;2.70;;;11.20;1.00;;;;;;5072467;28;20571;-83
2021/04/16 12:49:39;;;;;;;3.20;2.33;;;11.20;1.00;;;;;;5073703;28;20243;-82
2021/04/16 12:52:06;;;;;;;4.63;2.97;;;11.10;1.00;;;;;;5072798;28;20679;-82
2021/04/16 12:54:44;;;;;;;4.10;2.60;;;11.30;1.00;;;;;;5073776;28;20176;-81
2021/04/16 12:57:15;;;;;;;4.47;2.60;;;11.40;1.00;;;;;;5072399;28;20199;-79
2021/04/16 12:59:41;;;;;;;4.63;2.50;;;11.30;1.00;;;;;;5072186;28;20173;-82
2021/04/16 13:02:37;;;;;;;5.00;2.60;;;11.40;1.00;;;;;;5071580;28;20268;-80
2021/04/16 13:05:07;;;;;;;5.80;2.47;;;11.30;1.00;;;;;;5067664;28;20224;-82
2021/04/16 13:07:34;;;;;;;4.47;2.60;;;11.20;1.00;;;;;;5071361;28;20534;-83
2021/04/16 13:10:23;;;;;;;4.73;2.50;;;11.20;1.00;;;;;;5071946;28;20184;-81
2021/04/16 13:12:49;;;;;;;3.63;2.40;;;11.20;1.00;;;;;;5068745;28;20177;-85
2021/04/16 13:15:17;;;;;;;4.47;2.90;;;11.40;1.00;;;;;;5073402;28;20692;-82
2021/04/16 13:17:48;;;;;;;4.87;2.50;;;11.50;1.00;;;;;;5072733;28;20578;-82
2021/04/16 13:20:51;;;;;;;5.07;2.60;;;11.50;1.00;;;;;;5073693;28;20164;-82
2021/04/16 13:23:17;;;;;;;3.77;2.70;;;11.50;1.00;;;;;;5060866;28;20176;-83
2021/04/16 13:25:43;;;;;;;5.13;2.70;;;11.50;1.00;;;;;;5072864;28;20235;-81
2021/04/16 13:28:09;;;;;;;3.80;2.40;;;11.50;1.00;;;;;;5071728;28;20652;-81
2021/04/16 13:30:35;;;;;;;3.47;2.47;;;11.40;1.00;;;;;;5072979;28;20172;-84
2021/04/16 13:33:21;;;;;;;4.90;2.80;;;11.40;1.00;;;;;;5071815;28;20300;-81
2021/04/16 13:35:54;;;;;;;4.37;3.03;;;11.30;1.00;;;;;;5072314;28;20247;-81
2021/04/16 13:38:23;;;;;;;7.07;3.87;;;11.40;1.00;;;;;;5073407;28;20164;-81
2021/04/16 13:40:49;;;;;;;5.07;2.40;;;11.50;1.00;;;;;;5071630;28;20171;-83
2021/04/16 13:43:15;;;;;;;4.67;2.93;;;11.60;1.00;;;;;;5073172;28;20168;-82
2021/04/16 13:45:40;;;;;;;3.47;2.73;;;11.70;1.00;;;;;;5070685;28;20766;-81
2021/04/16 13:48:07;;;;;;;3.80;2.57;;;11.60;1.00;;;;;;5072358;28;20504;-81
2021/04/16 13:50:35;;;;;;;3.57;2.70;;;11.60;1.00;;;;;;5072411;28;20192;-81
2021/04/16 13:53:01;;;;;;;5.07;2.80;;;11.60;1.00;;;;;;5071306;28;20179;-83
2021/04/16 13:55:28;;;;;;;5.77;2.73;;;11.50;1.00;;;;;;5070870;28;20199;-80
2021/04/16 13:57:54;;;;;;;4.07;2.90;;;11.50;1.00;;;;;;5071110;28;20207;-81
2021/04/16 14:00:22;;;;;;;3.97;2.90;;;11.40;1.00;;;;;;5072186;28;20200;-83
2021/04/16 14:02:51;;;;;;;4.67;2.90;;;11.30;1.00;;;;;;5071037;28;20630;-80
2021/04/16 14:05:21;;;;;;;3.70;2.53;;;11.50;1.00;;;;;;5072237;28;20682;-83
2021/04/16 14:07:49;;;;;;;3.93;2.80;;;11.70;1.00;;;;;;5071212;28;20194;-82
2021/04/16 14:10:17;;;;;;;5.17;3.13;;;11.60;1.00;;;;;;5072576;28;20255;-82
2021/04/16 14:12:43;;;;;;;5.50;3.17;;;11.60;1.00;;;;;;5072349;28;20171;-83
2021/04/16 14:15:09;;;;;;;3.70;2.57;;;11.70;1.00;;;;;;5072123;28;20172;-84
2021/04/16 14:17:47;;;;;;;4.63;3.40;;;11.80;1.00;;;;;;5071967;28;20200;-84
2021/04/16 14:20:21;;;;;;;4.73;2.50;;;12.00;1.00;;;;;;5072944;28;20232;-82
2021/04/16 14:22:49;;;;;;;5.70;2.87;;;12.00;1.00;;;;;;5072122;28;20180;-83
2021/04/16 14:25:41;;;;;;;5.47;2.77;;;12.10;1.00;;;;;;5070786;28;20223;-82
2021/04/16 14:28:10;;;;;;;3.67;2.57;;;12.40;1.00;;;;;;5071717;28;20207;-81
2021/04/16 14:30:37;;;;;;;5.67;2.90;;;12.60;1.00;;;;;;5069686;28;20190;-81
2021/04/16 14:33:12;;;;;;;6.00;2.73;;;12.80;1.00;;;;;;5070369;28;20168;-82
2021/04/16 14:35:38;;;;;;;3.93;2.77;;;12.50;1.00;;;;;;5070835;28;20183;-82
2021/04/16 14:38:08;;;;;;;3.90;2.67;;;12.30;1.00;;;;;;5071922;28;20231;-82
2021/04/16 14:40:34;;;;;;;5.93;2.87;;;12.30;1.00;;;;;;5071102;28;20169;-81
2021/04/16 14:43:05;;;;;;;6.50;3.13;;;12.30;1.00;;;;;;5070454;28;20172;-81
2021/04/16 14:45:39;;;;;;;3.83;2.80;;;12.50;1.00;;;;;;5070749;28;20594;-80
2021/04/16 14:48:05;;;;;;;4.27;2.70;;;12.40;1.00;;;;;;5074284;28;20198;-83
2021/04/16 14:50:31;;;;;;;3.57;2.73;;;12.30;1.00;;;;;;5075718;28;20173;-81
2021/04/16 14:53:04;;;;;;;4.50;3.13;;;12.40;1.00;;;;;;5074909;28;20168;-83
2021/04/16 14:55:36;;;;;;;4.77;3.30;;;12.30;1.00;;;;;;5074346;28;20180;-82
2021/04/16 14:58:03;;;;;;;4.60;2.77;;;12.30;1.00;;;;;;5074687;28;20176;-82
2021/04/16 15:00:34;;;;;;;6.93;2.87;;;12.20;1.00;;;;;;5074470;28;20200;-82
2021/04/16 15:03:00;;;;;;;5.37;2.83;;;12.20;1.00;;;;;;5075741;28;20160;-83
2021/04/16 15:05:25;;;;;;;5.50;2.77;;;12.20;1.00;;;;;;5075626;28;20604;-83
2021/04/16 15:08:01;;;;;;;5.07;2.90;;;12.20;1.00;;;;;;5074390;28;20168;-81
2021/04/16 15:10:33;;;;;;;3.87;2.80;;;12.00;1.00;;;;;;5074516;28;20180;-81
2021/04/16 15:13:00;;;;;;;3.63;2.73;;;12.00;1.00;;;;;;5073902;28;20171;-81
2021/04/16 15:15:36;;;;;;;4.70;2.73;;;11.90;1.00;;;;;;5076065;28;20604;-81
2021/04/16 15:18:10;;;;;;;4.37;2.90;;;11.80;1.00;;;;;;5074239;28;20168;-83
2021/04/16 15:20:37;;;;;;;4.33;2.80;;;11.90;1.00;;;;;;5074385;28;20172;-82